Dulzura (157) Station Data

Red Flag Warning: No
Fire Weather Zone: 250
SDGE Region: Mountain Empire
Lat/Lon: 32.615/-116.758

Observations

Time Wind Speed/Gust Temp(F) RH Fuel Moist Fuel Temp(F) Dewpt(F) Tmax(F) Tmin(F) Accum Precip 10-min Precip SL Press(mb)
4/26 2:50am 117 3 G 6 52° 79% - - 46° 54.9° 51.7° - - 1014.0
4/26 2:40am 106 3 G 5 52° 79% - - 46° 54.9° 52.1° - - 1014.0
4/26 2:30am 117 3 G 5 53° 78% - - 46° 54.9° 52.1° - - 1014.0
4/26 2:20am 128 4 G 5 53° 78% - - 46° 54.9° 52.2° - - 1014.0
4/26 2:10am 131 3 G 6 53° 77% - - 46° 54.9° 52.2° - - 1014.0
4/26 2:00am 151 4 G 6 53° 77% - - 46° 54.9° 52.2° - - 1014.0
4/26 1:50am 142 4 G 6 53° 77% - - 46° 54.9° 52.2° - - 1014.0
4/26 1:40am 97 2 G 4 53° 76% - - 46° 54.9° 52.4° - - 1014.0
4/26 1:30am 130 3 G 6 54° 75% - - 46° 54.9° 52.4° - - 1014.0
4/26 1:20am 170 4 G 5 53° 77% - - 46° 54.9° 52.4° - - 1014.0
4/26 1:10am 127 3 G 5 53° 77% - - 46° 54.9° 52.6° - - 1015.0
4/26 1:00am 115 2 G 5 53° 77% - - 46° 54.9° 52.6° - - 1015.0
4/26 12:50am 119 2 G 4 53° 77% - - 46° 54.9° 52.6° - - 1015.0
4/26 12:40am 135 3 G 4 53° 78% - - 47° 54.9° 52.6° - - 1015.0
4/26 12:30am 98 1 G 2 53° 78% - - 47° 54.9° 52.6° - - 1015.0
4/26 12:20am 67 2 G 4 54° 77% - - 47° 54.9° 53.2° - - 1015.0
4/26 12:10am 154 3 G 4 54° 76% - - 47° 54.9° 53.7° - - 1015.0
4/26 12:00am 174 2 G 5 54° 77% - - 47° 66.6° 52.7° - - 1015.0
4/25 11:50pm 101 1 G 4 54° 77% - - 47° 66.6° 52.7° - - 1015.0
4/25 11:40pm 137 1 G 2 55° 76% - - 47° 66.6° 52.7° - - 1015.0
4/25 11:30pm 229 1 G 3 55° 76% - - 47° 66.6° 52.7° - - 1015.0
4/25 11:20pm 183 1 G 2 55° 76% - - 47° 66.6° 52.7° - - 1015.0
4/25 11:10pm 116 2 G 4 55° 76% - - 47° 66.6° 52.7° - - 1015.0
4/25 11:00pm 91 1 G 4 55° 77% - - 47° 66.6° 52.7° - - 1015.0
4/25 10:50pm 326 1 G 2 55° 77% - - 48° 66.6° 52.7° - - 1015.0
4/25 10:40pm 196 1 G 2 54° 79% - - 48° 66.6° 52.7° - - 1016.0
4/25 10:30pm 10 1 G 4 55° 77% - - 48° 66.6° 52.7° - - 1015.0
4/25 10:20pm 347 5 G 6 55° 76% - - 48° 66.6° 52.7° - - 1015.0
4/25 10:10pm 333 5 G 6 55° 76% - - 48° 66.6° 52.7° - - 1015.0
4/25 10:00pm 329 4 G 6 55° 75% - - 48° 66.6° 52.7° - - 1015.0
4/25 9:50pm 328 5 G 6 55° 75% - - 48° 66.6° 52.7° - - 1015.0
4/25 9:40pm 327 5 G 7 55° 75% - - 48° 66.6° 52.7° - - 1015.0
4/25 9:30pm 329 5 G 7 56° 74% - - 48° 66.6° 52.7° - - 1015.0
4/25 9:20pm 317 7 G 8 56° 75% - - 48° 66.6° 52.7° - - 1015.0
4/25 9:10pm 315 7 G 9 55° 75% - - 48° 66.6° 52.7° - - 1015.0
4/25 9:00pm 319 6 G 8 56° 74% - - 48° 66.6° 52.7° - - 1015.0
4/25 8:50pm 332 6 G 8 56° 74% - - 48° 66.6° 52.7° - - 1015.0
4/25 8:40pm 353 6 G 7 56° 73% - - 48° 66.6° 52.7° - - 1015.0
4/25 8:30pm 6 6 G 8 56° 74% - - 48° 66.6° 52.7° - - 1014.0
4/25 8:20pm 352 5 G 8 57° 72% - - 48° 66.6° 52.7° - - 1014.0
4/25 8:10pm 321 6 G 8 57° 72% - - 48° 66.6° 52.7° - - 1014.0
4/25 8:00pm 326 6 G 7 58° 71% - - 48° 66.6° 52.7° - - 1014.0
4/25 7:50pm 310 5 G 6 58° 71% - - 48° 66.6° 52.7° - - 1014.0
4/25 7:40pm 307 4 G 5 58° 71% - - 48° 66.6° 52.7° - - 1013.0
4/25 7:30pm 304 4 G 6 58° 70% - - 49° 66.6° 52.7° - - 1014.0
4/25 7:20pm 300 5 G 8 59° 70% - - 49° 66.6° 52.7° - - 1013.0
4/25 7:10pm 293 7 G 11 59° 69% - - 49° 66.6° 52.7° - - 1013.0
4/25 7:00pm 292 6 G 9 60° 68% - - 49° 66.6° 52.7° - - 1013.0
4/25 6:50pm 284 5 G 10 60° 69% - - 50° 66.6° 52.7° - - 1013.0
4/25 6:40pm 271 6 G 10 60° 70% - - 50° 66.6° 52.7° - - 1013.0
4/25 6:30pm 271 7 G 11 60° 70% - - 50° 66.6° 52.7° - - 1013.0
4/25 6:20pm 289 7 G 11 60° 70% - - 50° 66.6° 52.7° - - 1013.0
4/25 6:10pm 283 6 G 11 60° 70% - - 50° 66.6° 52.7° - - 1013.0
4/25 6:00pm 286 9 G 14 60° 70% - - 50° 66.6° 52.7° - - 1013.0
4/25 5:50pm 300 10 G 16 61° 69% - - 50° 66.6° 52.7° - - 1013.0
4/25 5:40pm 292 7 G 11 61° 68% - - 50° 66.6° 52.7° - - 1013.0
4/25 5:30pm 293 8 G 13 61° 68% - - 50° 66.6° 52.7° - - 1013.0
4/25 5:20pm 289 10 G 14 61° 66% - - 50° 66.6° 52.7° - - 1013.0
4/25 5:10pm 286 8 G 13 62° 65% - - 50° 66.6° 52.7° - - 1013.0
4/25 5:00pm 289 7 G 12 62° 65% - - 50° 66.6° 52.7° - - 1013.0
4/25 4:50pm 290 7 G 12 62° 65% - - 50° 66.6° 52.7° - - 1013.0
4/25 4:40pm 286 7 G 13 62° 65% - - 50° 66.6° 52.7° - - 1013.0
4/25 4:30pm 298 8 G 12 62° 64% - - 50° 66.6° 52.7° - - 1013.0
4/25 4:20pm 305 9 G 15 63° 63% - - 50° 66.6° 52.7° - - 1013.0
4/25 4:10pm 325 9 G 17 64° 61% - - 50° 66.6° 52.7° - - 1013.0
4/25 4:00pm 297 8 G 15 63° 62% - - 50° 66.6° 52.7° - - 1013.0
4/25 3:50pm 333 10 G 16 64° 61% - - 50° 66.6° 52.7° - - 1013.0
4/25 3:40pm 338 9 G 15 65° 60% - - 50° 66.6° 52.7° - - 1012.0
4/25 3:30pm 310 8 G 12 64° 60% - - 50° 66.6° 52.7° - - 1012.0
4/25 3:20pm 311 7 G 12 64° 60% - - 50° 66.6° 52.7° - - 1012.0
4/25 3:10pm 301 6 G 12 64° 60% - - 50° 66.6° 52.7° - - 1012.0
4/25 3:00pm 319 8 G 14 64° 60% - - 50° 66.6° 52.7° - - 1013.0
4/25 2:50pm 302 9 G 15 64° 59% - - 50° 66.6° 52.7° - - 1013.0
4/25 2:40pm 290 10 G 16 64° 59% - - 50° 66.6° 52.7° - - 1013.0
4/25 2:30pm 294 8 G 14 65° 59% - - 50° 66.6° 52.7° - - 1013.0
4/25 2:20pm 290 9 G 14 64° 60% - - 50° 66.6° 52.7° - - 1013.0
4/25 2:10pm 296 10 G 17 65° 60% - - 50° 66.6° 52.7° - - 1013.0
4/25 2:00pm 307 10 G 15 65° 59% - - 50° 66.6° 52.7° - - 1013.0
4/25 1:50pm 290 8 G 15 65° 59% - - 50° 66.6° 52.7° - - 1013.0
4/25 1:40pm 288 8 G 15 65° 59% - - 50° 66.6° 52.7° - - 1013.0
4/25 1:30pm 287 10 G 18 64° 58% - - 49° 66.6° 52.7° - - 1013.0
4/25 1:20pm 302 10 G 17 65° 57% - - 49° 66.6° 52.7° - - 1013.0
4/25 1:10pm 288 9 G 15 65° 57% - - 49° 66.6° 52.7° - - 1013.0
4/25 1:00pm 314 10 G 16 65° 56% - - 49° 66.6° 52.7° - - 1013.0
4/25 12:50pm 308 8 G 15 65° 56% - - 49° 66.6° 52.7° - - 1013.0
4/25 12:40pm 292 9 G 15 65° 55% - - 48° 66.6° 52.7° - - 1013.0
4/25 12:30pm 300 6 G 13 65° 54% - - 48° 66.6° 52.7° - - 1013.0
4/25 12:20pm 294 10 G 18 65° 53% - - 48° 66° 52.7° - - 1013.0
4/25 12:10pm 302 8 G 17 65° 54% - - 48° 65.6° 52.7° - - 1014.0
4/25 12:00pm 281 9 G 17 64° 53% - - 47° 65.6° 52.7° - - 1014.0
4/25 11:50am 305 8 G 13 64° 56% - - 48° 65.2° 52.7° - - 1014.0
4/25 11:40am 298 9 G 15 64° 56% - - 48° 65.2° 52.7° - - 1014.0
4/25 11:30am 273 5 G 15 64° 57% - - 48° 65.2° 52.7° - - 1014.0
4/25 11:20am 314 8 G 15 64° 56% - - 48° 64.9° 52.7° - - 1014.0
4/25 11:10am 304 10 G 19 63° 56% - - 47° 64.4° 52.7° - - 1014.0
4/25 11:00am 319 6 G 14 63° 57% - - 48° 64.4° 52.7° - - 1014.0
4/25 10:50am 299 9 G 13 63° 57% - - 47° 63.9° 52.7° - - 1014.0
4/25 10:40am 302 8 G 15 63° 56% - - 47° 63.5° 52.7° - - 1014.0
4/25 10:30am 314 7 G 13 62° 60% - - 48° 63.4° 52.7° - - 1014.0
4/25 10:20am 347 7 G 12 62° 61% - - 49° 63.4° 52.7° - - 1014.0
4/25 10:10am 326 6 G 12 61° 62% - - 48° 62.6° 52.7° - - 1014.0
4/25 10:00am 295 4 G 9 61° 65% - - 49° 62.6° 52.7° - - 1014.0
4/25 9:50am 301 3 G 7 59° 69% - - 49° 60.9° 52.7° - - 1014.0
4/25 9:40am 299 5 G 9 60° 70% - - 50° 60.7° 52.7° - - 1014.0
4/25 9:30am 339 4 G 8 60° 69% - - 49° 60.7° 52.7° - - 1014.0
4/25 9:20am 85 3 G 9 60° 71% - - 50° 60.7° 52.7° - - 1014.0
4/25 9:10am 222 4 G 8 58° 75% - - 50° 58.8° 52.7° - - 1014.0
4/25 9:00am 197 3 G 7 58° 76% - - 50° 58.8° 52.7° - - 1014.0
4/25 8:50am 136 4 G 7 57° 77% - - 50° 58.8° 52.7° - - 1014.0
4/25 8:40am 134 4 G 8 58° 77% - - 50° 58.8° 52.7° - - 1014.0
4/25 8:30am 113 4 G 8 57° 78% - - 51° 57.9° 52.7° - - 1014.0
4/25 8:20am 133 3 G 6 57° 80% - - 51° 57.3° 52.7° - - 1014.0
4/25 8:10am 128 5 G 7 56° 82% - - 50° 56.6° 52.7° - - 1014.0
4/25 8:00am 139 5 G 7 56° 82% - - 51° 56.6° 52.7° - - 1014.0
4/25 7:50am 173 4 G 6 55° 84% - - 51° 56.1° 52.7° - - 1014.0
4/25 7:40am 162 4 G 9 55° 86% - - 51° 55.6° 52.7° - - 1014.0
4/25 7:30am 179 4 G 7 55° 87% - - 51° 55.3° 52.7° - - 1014.0
4/25 7:20am 186 2 G 4 54° 88% - - 51° 55.3° 52.7° - - 1014.0
4/25 7:10am 173 2 G 5 54° 89% - - 51° 55.3° 52.7° - - 1014.0
4/25 7:00am 144 3 G 5 54° 90% - - 51° 55.3° 52.7° - - 1014.0
4/25 6:50am 142 3 G 4 53° 91% - - 51° 55.3° 52.7° - - 1014.0
4/25 6:40am 125 1 G 3 53° 91% - - 51° 55.3° 52.7° - - 1014.0
4/25 6:30am 97 0 G 2 53° 91% - - 51° 55.3° 52.7° - - 1014.0
4/25 6:20am 130 2 G 3 53° 92% - - 51° 55.3° 52.7° - - 1014.0
4/25 6:10am 131 3 G 6 53° 91% - - 51° 55.3° 52.7° - - 1014.0
4/25 6:00am 156 3 G 5 53° 91% - - 51° 55.3° 52.8° - - 1013.0
4/25 5:50am 143 3 G 5 53° 91% - - 51° 55.3° 52.8° - - 1013.0
4/25 5:40am 162 3 G 5 53° 91% - - 51° 55.3° 52.9° - - 1013.0
4/25 5:30am 167 3 G 7 53° 91% - - 51° 55.3° 53° - - 1013.0
4/25 5:20am 174 4 G 6 54° 90% - - 51° 55.3° 53.1° - - 1013.0
4/25 5:10am 174 4 G 7 54° 89% - - 51° 55.3° 53.1° - - 1013.0
4/25 5:00am 178 4 G 7 54° 89% - - 51° 55.3° 53.1° - - 1013.0
4/25 4:50am 187 4 G 7 54° 89% - - 51° 55.3° 53.1° - - 1013.0
4/25 4:40am 196 4 G 6 54° 89% - - 51° 55.3° 53.1° - - 1013.0
4/25 4:30am 180 4 G 7 54° 90% - - 51° 55.3° 53.1° - - 1013.0
4/25 4:20am 163 4 G 7 54° 90% - - 51° 55.3° 53.1° - - 1013.0
4/25 4:10am 150 3 G 6 53° 90% - - 51° 55.3° 53.1° - - 1013.0
4/25 4:00am 170 4 G 7 54° 90% - - 51° 55.3° 53.2° - - 1013.0
4/25 3:50am 169 5 G 8 54° 89% - - 51° 55.3° 53.4° - - 1013.0
4/25 3:40am 163 5 G 8 54° 89% - - 51° 55.3° 53.6° - - 1013.0
4/25 3:30am 176 4 G 6 54° 88% - - 51° 55.3° 53.7° - - 1013.0
4/25 3:20am 192 7 G 11 54° 87% - - 50° 55.3° 53.7° - - 1014.0
4/25 3:10am 198 7 G 11 54° 85% - - 50° 55.3° 53.7° - - 1014.0
4/25 3:00am 195 7 G 11 54° 86% - - 50° 55.3° 53.7° - - 1014.0
4/25 2:50am 195 7 G 11 54° 86% - - 50° 55.3° 53.7° - - 1014.0
4/25 2:40am 197 6 G 10 54° 87% - - 50° 55.3° 53.7° - - 1014.0
4/25 2:30am 177 5 G 11 54° 88% - - 51° 55.3° 53.7° - - 1014.0
4/25 2:20am 192 6 G 8 54° 88% - - 51° 55.3° 53.7° - - 1014.0
4/25 2:10am 199 6 G 11 54° 87% - - 50° 55.3° 54° - - 1014.0
4/25 2:00am 199 6 G 9 54° 85% - - 50° 55.3° 54° - - 1014.0
4/25 1:50am 192 5 G 10 55° 85% - - 50° 55.3° 54° - - 1014.0
4/25 1:40am 173 4 G 7 54° 85% - - 50° 55.3° 54° - - 1014.0
4/25 1:30am 182 4 G 8 54° 86% - - 50° 55.3° 54° - - 1014.0
4/25 1:20am 171 5 G 7 54° 86% - - 50° 55.3° 54° - - 1014.0
4/25 1:10am 174 5 G 9 54° 88% - - 51° 55.3° 54° - - 1014.0
4/25 1:00am 176 6 G 9 54° 89% - - 51° 55.3° 54° - - 1014.0
4/25 12:50am 174 5 G 10 55° 87% - - 51° 55.3° 54.1° - - 1014.0
4/25 12:40am 171 4 G 6 55° 86% - - 51° 55.3° 54.2° - - 1014.0
4/25 12:30am 194 7 G 12 55° 86% - - 50° 55.3° 54.2° - - 1014.0
4/25 12:20am 188 8 G 12 55° 84% - - 50° 55.3° 54.3° - - 1013.0
4/25 12:10am 168 6 G 9 55° 85% - - 50° 55.3° 54.3° - - 1014.0
4/25 12:00am 158 2 G 6 55° 85% - - 50° 69.4° 51.3° - - 1015.0
4/24 11:50pm 198 3 G 6 55° 85% - - 50° 69.4° 51.3° - - 1015.0
4/24 11:40pm 192 3 G 7 55° 84% - - 50° 69.4° 51.3° - - 1015.0
4/24 11:30pm 205 3 G 6 55° 84% - - 50° 69.4° 51.3° - - 1015.0
4/24 11:20pm 206 5 G 8 55° 82% - - 50° 69.4° 51.3° - - 1014.0
4/24 11:10pm 204 5 G 7 54° 84% - - 50° 69.4° 51.3° - - 1014.0
4/24 11:00pm 205 5 G 8 54° 85% - - 50° 69.4° 51.3° - - 1014.0
4/24 10:50pm 191 4 G 7 54° 86% - - 50° 69.4° 51.3° - - 1014.0
4/24 10:40pm 192 5 G 9 55° 85% - - 50° 69.4° 51.3° - - 1014.0
4/24 10:30pm 196 6 G 10 55° 85% - - 50° 69.4° 51.3° - - 1014.0
4/24 10:20pm 183 5 G 9 55° 86% - - 51° 69.4° 51.3° - - 1014.0
4/24 10:10pm 175 4 G 7 55° 87% - - 51° 69.4° 51.3° - - 1014.0
4/24 10:00pm 171 3 G 6 55° 89% - - 52° 69.4° 51.3° - - 1014.0
4/24 9:50pm 226 1 G 3 55° 90% - - 52° 69.4° 51.3° - - 1014.0
4/24 9:40pm 247 3 G 4 55° 90% - - 52° 69.4° 51.3° - - 1014.0
4/24 9:30pm 273 2 G 4 55° 90% - - 52° 69.4° 51.3° - - 1014.0
4/24 9:20pm 329 5 G 8 55° 91% - - 52° 69.4° 51.3° - - 1014.0
4/24 9:10pm 339 6 G 9 55° 91% - - 52° 69.4° 51.3° - - 1014.0
4/24 9:00pm 340 8 G 11 55° 90% - - 52° 69.4° 51.3° - - 1015.0
4/24 8:50pm 340 8 G 10 55° 89% - - 52° 69.4° 51.3° - - 1014.0
4/24 8:40pm 340 7 G 10 56° 89% - - 52° 69.4° 51.3° - - 1014.0
4/24 8:30pm 335 6 G 9 56° 88% - - 52° 69.4° 51.3° - - 1014.0
4/24 8:20pm 331 7 G 10 56° 88% - - 52° 69.4° 51.3° - - 1014.0
4/24 8:10pm 325 7 G 10 56° 88% - - 52° 69.4° 51.3° - - 1014.0
4/24 8:00pm 325 7 G 9 56° 88% - - 52° 69.4° 51.3° - - 1014.0
4/24 7:50pm 318 7 G 11 56° 88% - - 52° 69.4° 51.3° - - 1014.0
4/24 7:40pm 313 7 G 10 56° 87% - - 52° 69.4° 51.3° - - 1013.0
4/24 7:30pm 314 8 G 11 56° 86% - - 52° 69.4° 51.3° - - 1014.0
4/24 7:20pm 319 8 G 11 57° 86% - - 52° 69.4° 51.3° - - 1013.0
4/24 7:10pm 322 9 G 12 57° 84% - - 53° 69.4° 51.3° - - 1013.0
4/24 7:00pm 320 9 G 14 58° 83% - - 53° 69.4° 51.3° - - 1013.0
4/24 6:50pm 322 10 G 15 58° 81% - - 53° 69.4° 51.3° - - 1013.0
4/24 6:40pm 315 11 G 14 59° 80% - - 53° 69.4° 51.3° - - 1013.0
4/24 6:30pm 334 9 G 13 59° 79% - - 53° 69.4° 51.3° - - 1013.0
4/24 6:20pm 338 10 G 15 60° 78% - - 53° 69.4° 51.3° - - 1013.0
4/24 6:10pm 337 11 G 15 60° 76% - - 53° 69.4° 51.3° - - 1013.0
4/24 6:00pm 351 11 G 16 61° 73% - - 53° 69.4° 51.3° - - 1013.0